Time;durP1;ratioP1;P1;durP2;ratioP2;P2;SDS_P1;SDS_P2;PMS_P1;PMS_P2;Temp;Humidity;BMP_temperature;BMP_pressure;BME280_temperature;BME280_humidity;BME280_pressure;Samples;Min_cycle;Max_cycle;Signal;HPM_P1;HPM_P2
2022/06/15 00:02:26;;;;;;;5.70;3.05;;;20.40;44.10;;;20.71;39.35;97702.34;5023198;28;20225;-52
2022/06/15 00:04:54;;;;;;;4.38;3.30;;;20.40;44.20;;;20.68;39.12;97702.78;5022865;28;20325;-52
2022/06/15 00:07:22;;;;;;;4.68;3.70;;;20.30;44.00;;;20.68;39.12;97701.97;5022913;28;20584;-49
2022/06/15 00:09:50;;;;;;;4.47;3.05;;;20.40;44.00;;;20.64;38.90;97694.28;5021797;28;20057;-51
2022/06/15 00:12:18;;;;;;;5.55;3.72;;;20.40;43.90;;;20.66;39.20;97702.19;5023233;28;20052;-50
2022/06/15 00:14:46;;;;;;;8.52;3.65;;;20.40;43.80;;;20.64;39.19;97701.59;5022847;28;20052;-52
2022/06/15 00:17:13;;;;;;;4.55;4.10;;;20.40;44.10;;;20.62;39.50;97700.97;5022960;28;20046;-51
2022/06/15 00:19:41;;;;;;;4.55;3.05;;;20.30;44.10;;;20.58;39.35;97694.34;5022709;28;20046;-48
2022/06/15 00:22:09;;;;;;;6.25;3.35;;;20.30;44.60;;;20.53;39.42;97702.28;5023159;28;20045;-51
2022/06/15 00:24:37;;;;;;;5.82;3.42;;;20.20;44.50;;;20.48;39.83;97702.16;5022828;28;20052;-54
2022/06/15 00:27:05;;;;;;;5.38;3.60;;;20.10;44.90;;;20.42;39.82;97695.75;5022619;28;20060;-52
2022/06/15 00:29:37;;;;;;;5.78;3.50;;;20.10;45.20;;;20.37;39.80;97696.41;5021280;28;20050;-50
2022/06/15 00:32:06;;;;;;;4.88;3.47;;;20.00;45.20;;;20.37;40.14;97692.88;5021447;28;20275;-52
2022/06/15 00:34:34;;;;;;;4.57;4.18;;;20.00;45.30;;;20.34;39.96;97687.94;5021079;28;20056;-51
2022/06/15 00:37:04;;;;;;;5.55;3.63;;;20.00;45.40;;;20.32;39.97;97688.16;5021587;28;20042;-50
2022/06/15 00:39:34;;;;;;;8.65;3.83;;;19.90;45.50;;;20.33;40.21;97678.16;5021398;28;20244;-48
2022/06/15 00:42:03;;;;;;;4.88;3.70;;;20.00;45.50;;;20.29;40.28;97687.78;5022612;28;20052;-50
2022/06/15 00:44:37;;;;;;;4.97;3.13;;;19.90;45.80;;;20.19;40.76;97681.00;5021141;28;20049;-49
2022/06/15 00:47:17;;;;;;;5.13;3.42;;;19.80;46.50;;;20.13;40.78;97676.47;5021447;28;20134;-51
2022/06/15 00:50:08;;;;;;;7.07;4.68;;;19.70;46.30;;;20.09;41.08;97677.16;5021127;28;20064;-49
2022/06/15 00:52:52;;;;;;;5.07;4.55;;;19.80;46.60;;;20.01;41.06;97670.97;5022363;28;20348;-52
2022/06/15 00:55:26;;;;;;;7.45;3.40;;;19.70;47.30;;;19.97;40.88;97664.34;5021292;28;20057;-48
2022/06/15 00:57:55;;;;;;;4.97;3.80;;;19.70;47.00;;;19.95;40.95;97655.66;5022096;28;20056;-48
2022/06/15 01:00:23;;;;;;;6.82;3.90;;;19.70;47.50;;;19.91;40.91;97654.44;5021217;28;20045;-50
2022/06/15 01:02:51;;;;;;;4.82;3.22;;;19.60;46.50;;;19.89;41.02;97655.69;5020990;28;20054;-52
2022/06/15 01:05:37;;;;;;;6.93;3.63;;;19.60;46.60;;;19.85;41.32;97656.16;5022060;28;20049;-52
2022/06/15 01:08:21;;;;;;;5.25;3.38;;;19.60;47.10;;;19.85;41.63;97655.28;5021720;28;20048;-52
2022/06/15 01:11:09;;;;;;;6.30;3.65;;;19.60;47.70;;;19.83;41.13;97650.13;5020794;28;20056;-52
2022/06/15 01:14:25;;;;;;;8.77;3.80;;;19.50;47.50;;;19.77;41.89;97653.69;5020595;28;20046;-52
2022/06/15 01:17:30;;;;;;;4.93;3.00;;;19.50;48.20;;;19.72;41.95;97656.25;5022046;28;20046;-50
2022/06/15 01:20:40;;;;;;;4.43;3.42;;;19.40;47.50;;;19.73;41.34;97660.59;5022017;28;20348;-49
2022/06/15 01:23:37;;;;;;;5.15;3.67;;;19.40;48.30;;;19.71;41.23;97661.81;5020700;28;20054;-50
2022/06/15 01:26:58;;;;;;;5.07;3.28;;;19.40;47.10;;;19.70;41.36;97658.31;5020901;28;20046;-51
2022/06/15 01:30:14;;;;;;;7.78;3.22;;;19.40;47.90;;;19.65;41.36;97650.84;5020572;28;20046;-49
2022/06/15 01:33:15;;;;;;;6.57;3.33;;;19.30;48.00;;;19.65;41.79;97647.31;5021301;28;20050;-52
2022/06/15 01:35:55;;;;;;;3.45;2.97;;;19.30;47.90;;;19.63;41.41;97655.63;5004924;28;20050;-49
2022/06/15 01:38:51;;;;;;;6.95;3.88;;;19.20;47.10;;;19.59;41.78;97651.72;5020315;28;20050;-50
2022/06/15 01:42:25;;;;;;;8.63;3.90;;;19.30;48.50;;;19.47;42.48;97653.47;5021877;28;20049;-50
2022/06/15 01:45:00;;;;;;;3.88;3.30;;;19.10;48.90;;;19.38;42.25;97652.91;5020299;28;20374;-49
2022/06/15 01:47:32;;;;;;;6.45;3.50;;;18.90;48.50;;;19.35;42.39;97661.44;5004255;28;20358;-50
2022/06/15 01:50:15;;;;;;;4.38;3.65;;;18.90;48.90;;;19.33;42.17;97658.16;5004592;28;20054;-47
2022/06/15 01:52:50;;;;;;;5.60;3.25;;;18.90;49.60;;;19.30;42.70;97658.56;5005700;28;20261;-51
2022/06/15 01:55:30;;;;;;;6.53;3.50;;;18.80;49.20;;;19.23;42.37;97655.91;5021138;28;20068;-53
2022/06/15 01:58:06;;;;;;;4.15;3.30;;;18.70;49.10;;;19.13;42.80;97660.13;5020521;28;20090;-54
2022/06/15 02:00:34;;;;;;;4.38;3.72;;;18.60;49.70;;;19.05;42.96;97656.59;5020789;28;20049;-52
2022/06/15 02:03:29;;;;;;;5.43;3.78;;;18.50;49.80;;;18.97;43.39;97650.66;5004237;28;20050;-53
2022/06/15 02:06:18;;;;;;;6.80;4.78;;;18.50;51.40;;;18.90;43.31;97656.06;5005015;28;20080;-48
2022/06/15 02:09:04;;;;;;;9.27;4.68;;;18.30;50.80;;;18.81;43.89;97654.66;5020182;28;20062;-50
2022/06/15 02:11:37;;;;;;;4.47;3.28;;;18.30;51.50;;;18.75;43.67;97653.63;5005734;28;20072;-49
2022/06/15 02:14:18;;;;;;;8.40;3.80;;;18.20;51.10;;;18.76;43.46;97655.25;5004690;28;20053;-52
2022/06/15 02:17:06;;;;;;;4.22;2.97;;;18.30;50.60;;;18.71;43.75;97652.38;5020495;28;20058;-49
2022/06/15 02:19:45;;;;;;;6.25;3.67;;;18.30;51.30;;;18.69;43.69;97652.59;5020622;28;20060;-51
2022/06/15 02:22:24;;;;;;;6.40;3.75;;;18.20;50.70;;;18.66;43.63;97650.31;5007631;28;20056;-47
2022/06/15 02:24:55;;;;;;;4.97;3.40;;;18.20;50.70;;;18.66;43.41;97649.50;5007895;28;20050;-52
2022/06/15 02:27:26;;;;;;;5.78;3.60;;;18.20;50.10;;;18.66;43.27;97644.91;5023878;28;20228;-48
2022/06/15 02:30:10;;;;;;;5.20;3.17;;;18.30;49.80;;;18.63;43.47;97645.38;5024845;28;20046;-51
2022/06/15 02:32:42;;;;;;;6.00;3.60;;;18.30;49.90;;;18.62;43.24;97643.69;5023748;28;20256;-48
2022/06/15 02:35:14;;;;;;;3.95;2.92;;;18.30;49.70;;;18.63;43.24;97634.59;5023216;28;20050;-52
2022/06/15 02:37:42;;;;;;;4.82;3.20;;;18.30;49.40;;;18.65;43.24;97627.09;5007451;28;20046;-49
2022/06/15 02:40:17;;;;;;;6.03;4.22;;;18.30;49.30;;;18.66;42.88;97628.75;5023541;28;20056;-52
2022/06/15 02:42:47;;;;;;;5.70;3.25;;;18.30;49.10;;;18.67;42.95;97630.41;5007635;28;20050;-52
2022/06/15 02:45:29;;;;;;;6.88;4.30;;;18.30;48.90;;;18.68;43.00;97628.53;5023303;28;20060;-54
2022/06/15 02:47:59;;;;;;;5.63;3.30;;;18.40;49.70;;;18.67;42.88;97627.72;5022804;28;20058;-48
2022/06/15 02:50:33;;;;;;;5.35;3.03;;;18.40;48.70;;;18.67;42.94;97629.59;5024285;28;20050;-52
2022/06/15 02:53:22;;;;;;;7.13;3.63;;;18.40;48.70;;;18.63;42.97;97631.88;5007934;28;20060;-49
2022/06/15 02:55:52;;;;;;;4.80;3.33;;;18.30;49.30;;;18.63;42.95;97625.63;5007404;28;20362;-51
2022/06/15 02:58:27;;;;;;;3.92;3.10;;;18.20;49.00;;;18.61;42.96;97636.66;5024051;28;20052;-50
2022/06/15 03:00:59;;;;;;;4.18;3.25;;;18.30;49.50;;;18.59;42.94;97627.97;5024251;28;20348;-48
2022/06/15 03:03:30;;;;;;;4.28;3.42;;;18.20;49.10;;;18.55;43.13;97631.28;5023163;28;20053;-48
2022/06/15 03:06:18;;;;;;;6.05;4.03;;;18.10;49.50;;;18.50;43.40;97631.94;5022724;28;20054;-47
2022/06/15 03:08:49;;;;;;;3.67;3.20;;;18.10;50.20;;;18.49;43.38;97635.66;5022417;28;20050;-50
2022/06/15 03:11:25;;;;;;;4.43;3.15;;;18.00;49.90;;;18.44;43.38;97635.47;5022963;28;20370;-49
2022/06/15 03:13:58;;;;;;;4.68;4.15;;;18.00;50.00;;;18.39;43.50;97636.09;5023333;28;20360;-48
2022/06/15 03:16:27;;;;;;;4.07;3.17;;;18.00;50.20;;;18.37;43.69;97632.78;5023100;28;20056;-51
2022/06/15 03:18:56;;;;;;;6.50;4.47;;;17.90;50.20;;;18.34;43.64;97627.81;5022398;28;20053;-47
2022/06/15 03:21:25;;;;;;;5.13;3.47;;;17.90;50.20;;;18.34;43.65;97627.81;5023232;28;20076;-50
2022/06/15 03:23:52;;;;;;;3.80;3.30;;;17.90;50.30;;;18.33;43.79;97628.03;5022674;28;20046;-51
2022/06/15 03:26:20;;;;;;;5.70;3.35;;;17.90;50.20;;;18.35;43.64;97620.56;5023753;28;20050;-50
2022/06/15 03:28:49;;;;;;;4.97;3.85;;;18.00;50.00;;;18.37;43.66;97619.31;5022221;28;20360;-49
2022/06/15 03:31:20;;;;;;;4.55;3.60;;;18.00;49.80;;;18.36;43.69;97617.66;5022311;28;20056;-54
2022/06/15 03:33:48;;;;;;;5.95;4.43;;;18.10;49.90;;;18.35;43.89;97621.38;5022585;28;20054;-47
2022/06/15 03:36:22;;;;;;;7.63;3.35;;;18.10;50.00;;;18.35;43.85;97621.38;5022376;28;20146;-51
2022/06/15 03:38:50;;;;;;;5.32;3.35;;;18.10;49.80;;;18.33;43.65;97610.00;5023322;28;20245;-48
2022/06/15 03:41:26;;;;;;;5.72;3.38;;;18.00;49.80;;;18.36;43.68;97617.66;5023088;28;20050;-54
2022/06/15 03:43:56;;;;;;;5.28;3.40;;;18.00;49.70;;;18.37;43.74;97615.78;5006130;28;20049;-51
2022/06/15 03:46:26;;;;;;;5.28;3.38;;;18.00;49.70;;;18.33;43.56;97615.38;5021936;28;20359;-51
2022/06/15 03:49:03;;;;;;;6.22;3.45;;;18.00;50.00;;;18.31;43.88;97628.25;5007059;28;20351;-50
2022/06/15 03:51:31;;;;;;;5.30;3.25;;;18.00;50.20;;;18.29;44.06;97627.63;5023661;28;20344;-51
2022/06/15 03:54:02;;;;;;;5.30;3.45;;;18.00;50.40;;;18.29;44.31;97628.44;5022269;28;20049;-50
2022/06/15 03:56:45;;;;;;;4.63;3.10;;;18.00;50.40;;;18.27;44.23;97629.69;5022666;28;20054;-50
2022/06/15 03:59:22;;;;;;;4.75;3.13;;;18.00;51.10;;;18.23;44.35;97633.84;5023039;28;20362;-50
2022/06/15 04:01:54;;;;;;;4.35;3.30;;;17.90;50.70;;;18.17;44.42;97629.31;5022409;28;20049;-51
2022/06/15 04:04:22;;;;;;;4.25;3.47;;;17.80;50.90;;;18.14;44.73;97635.94;5021861;28;20049;-49
2022/06/15 04:06:51;;;;;;;7.20;3.70;;;17.70;51.00;;;18.17;44.60;97635.53;5022208;28;20068;-48
2022/06/15 04:09:24;;;;;;;;;;;17.80;50.90;;;18.14;45.20;97643.19;5022324;28;20057;-47
2022/06/15 04:12:08;;;;;;;6.60;3.70;;;17.90;51.90;;;18.21;44.59;97639.44;5022903;28;19924;-50
2022/06/15 04:14:40;;;;;;;8.82;3.70;;;17.90;50.90;;;18.21;44.64;97644.84;5022307;28;20053;-49
2022/06/15 04:17:44;;;;;;;3.88;3.38;;;17.90;51.10;;;18.26;44.67;97647.75;5025984;28;20464;-51
2022/06/15 04:20:34;;;;;;;6.88;3.28;;;17.90;51.10;;;18.27;44.65;97640.47;5026827;28;20048;-49
2022/06/15 04:23:10;;;;;;;6.35;4.00;;;17.90;51.10;;;18.26;44.76;97650.44;5022677;28;20056;-48
2022/06/15 04:25:47;;;;;;;4.75;3.88;;;18.00;51.30;;;18.30;44.94;97656.25;5005518;28;20065;-51
2022/06/15 04:28:16;;;;;;;6.72;3.75;;;18.00;51.80;;;18.30;44.80;97653.53;5021416;28;20057;-48
2022/06/15 04:30:47;;;;;;;4.55;3.67;;;18.00;51.60;;;18.28;44.80;97660.97;5021927;28;20068;-49
2022/06/15 04:33:16;;;;;;;5.30;3.35;;;17.90;51.50;;;18.21;45.12;97665.56;5022031;28;20227;-49
2022/06/15 04:35:45;;;;;;;4.72;3.45;;;17.80;51.90;;;18.18;45.18;97657.91;5021499;28;20052;-47
2022/06/15 04:38:17;;;;;;;7.25;3.75;;;17.80;52.00;;;18.18;45.53;97663.28;5021049;28;20056;-48
2022/06/15 04:40:59;;;;;;;7.05;4.05;;;17.70;52.70;;;18.17;46.07;97659.78;5022042;28;20049;-50
2022/06/15 04:43:27;;;;;;;8.82;3.90;;;17.80;53.40;;;18.19;45.97;97665.78;5020558;28;20053;-51
2022/06/15 04:45:55;;;;;;;5.65;4.10;;;17.80;53.30;;;18.20;46.18;97653.13;5021358;28;20050;-48
2022/06/15 04:48:25;;;;;;;5.93;4.60;;;17.90;53.40;;;18.20;46.18;97661.22;5021193;28;20056;-49
2022/06/15 04:50:55;;;;;;;6.82;4.25;;;17.90;53.30;;;18.21;46.14;97657.50;5022391;28;20050;-50
2022/06/15 04:53:27;;;;;;;5.10;3.13;;;17.90;52.90;;;18.24;45.77;97659.75;5021257;28;20233;-51
2022/06/15 04:55:55;;;;;;;5.05;3.30;;;17.90;52.50;;;18.28;45.76;97655.59;5021314;28;20046;-46
2022/06/15 04:58:23;;;;;;;8.05;3.75;;;18.00;52.30;;;18.34;45.75;97659.31;5020979;28;20352;-50
2022/06/15 05:00:58;;;;;;;7.20;4.03;;;18.10;52.20;;;18.38;45.65;97658.72;5020615;28;20216;-48
2022/06/15 05:03:26;;;;;;;5.82;4.00;;;18.20;52.10;;;18.44;45.61;97655.16;5022865;28;20054;-48
2022/06/15 05:05:58;;;;;;;4.82;3.25;;;18.30;51.90;;;18.48;45.67;97660.97;5021223;28;20050;-51
2022/06/15 05:08:27;;;;;;;5.73;3.60;;;18.30;52.00;;;18.53;45.44;97663.00;5020858;28;20050;-47
2022/06/15 05:10:58;;;;;;;6.82;3.92;;;18.40;51.80;;;18.57;45.36;97659.69;5020871;28;20249;-49
2022/06/15 05:13:27;;;;;;;4.97;3.65;;;18.50;51.50;;;18.62;45.33;97659.06;5021189;28;20356;-48
2022/06/15 05:15:58;;;;;;;4.70;3.50;;;18.50;51.40;;;18.62;45.21;97654.47;5021027;28;20054;-50
2022/06/15 05:18:26;;;;;;;7.93;3.78;;;18.50;51.10;;;18.67;45.36;97651.16;5022066;28;20044;-52
2022/06/15 05:21:00;;;;;;;5.25;3.65;;;18.60;51.20;;;18.67;45.62;97649.28;5021196;28;20056;-48
2022/06/15 05:23:29;;;;;;;5.00;3.83;;;18.70;51.60;;;18.65;45.73;97656.75;5021258;28;20056;-50
2022/06/15 05:26:26;;;;;;;4.45;3.33;;;18.70;51.50;;;18.73;45.94;97657.53;5030229;28;20058;-49
2022/06/15 05:28:55;;;;;;;4.22;3.40;;;18.70;51.70;;;18.80;45.90;97653.81;5020614;28;20064;-51
2022/06/15 05:31:23;;;;;;;7.03;3.75;;;18.70;51.80;;;18.85;46.07;97654.00;5020527;28;20068;-50
2022/06/15 05:33:57;;;;;;;5.70;4.30;;;18.70;52.20;;;18.87;46.09;97654.63;5021120;28;20064;-48
2022/06/15 05:36:34;;;;;;;4.20;3.67;;;18.80;52.30;;;18.94;46.20;97646.53;5020674;28;20371;-50
2022/06/15 05:39:04;;;;;;;6.35;4.22;;;18.90;52.60;;;19.00;46.01;97645.66;5020865;28;20251;-52
2022/06/15 05:41:35;;;;;;;12.00;4.05;;;18.90;52.30;;;19.05;45.95;97647.69;5020985;28;20180;-48
2022/06/15 05:46:58;;;;;;;7.40;3.72;;;19.00;52.50;;;19.15;46.18;97648.06;5021040;28;20054;-50
2022/06/15 05:49:34;;;;;;;13.63;4.10;;;19.00;52.40;;;19.18;46.26;97642.22;5005224;28;20054;-49
2022/06/15 05:52:05;;;;;;;5.32;3.55;;;19.10;52.80;;;19.23;46.06;97655.06;5020716;28;20057;-50
2022/06/15 05:54:35;;;;;;;7.00;3.97;;;19.10;52.50;;;19.26;45.89;97644.66;5021706;28;20384;-49
2022/06/15 05:57:18;;;;;;;5.80;3.72;;;19.20;52.00;;;19.31;45.57;97648.59;5025712;28;20352;-49
2022/06/15 05:59:48;;;;;;;5.82;3.60;;;19.20;51.40;;;19.32;45.28;97651.06;5024310;28;20236;-48
2022/06/15 06:02:18;;;;;;;4.93;3.72;;;19.20;51.20;;;19.35;45.26;97647.94;5024603;28;20054;-51
2022/06/15 06:04:47;;;;;;;6.32;3.83;;;19.30;51.10;;;19.39;45.29;97649.16;5025405;28;20217;-51
2022/06/15 06:07:20;;;;;;;5.90;3.55;;;19.30;51.30;;;19.42;45.31;97647.91;5025049;28;20276;-53
2022/06/15 06:09:49;;;;;;;4.90;3.88;;;19.40;51.10;;;19.42;45.08;97653.31;5024313;28;20049;-53
2022/06/15 06:12:18;;;;;;;4.60;3.47;;;19.40;50.60;;;19.48;45.07;97647.03;5025276;28;20052;-50
2022/06/15 06:14:47;;;;;;;5.25;3.75;;;19.50;50.80;;;19.55;45.29;97644.28;5024987;28;20050;-54
2022/06/15 06:17:14;;;;;;;7.72;3.45;;;19.50;51.10;;;19.58;45.23;97642.00;5025051;28;20049;-51
2022/06/15 06:19:42;;;;;;;4.75;3.70;;;19.50;51.10;;;19.64;45.22;97654.59;5025472;28;20077;-50
2022/06/15 06:22:10;;;;;;;4.30;3.80;;;19.60;51.30;;;19.71;45.33;97656.44;5025260;28;20052;-51
2022/06/15 06:24:38;;;;;;;5.70;4.00;;;19.70;51.20;;;19.76;45.53;97659.34;5024795;28;20052;-51
2022/06/15 06:27:10;;;;;;;6.40;3.90;;;19.70;51.20;;;19.80;45.78;97663.25;5024912;28;20056;-52
2022/06/15 06:29:39;;;;;;;5.32;3.50;;;19.80;51.40;;;19.83;45.66;97660.09;5024827;28;20327;-50
2022/06/15 06:32:13;;;;;;;4.07;3.30;;;19.80;51.50;;;19.86;45.97;97649.69;5024749;28;20050;-51
2022/06/15 06:34:41;;;;;;;6.05;3.28;;;19.90;51.60;;;19.91;45.84;97649.03;5023830;28;20258;-51
2022/06/15 06:37:14;;;;;;;5.40;2.88;;;20.00;51.80;;;19.95;45.73;97650.25;5024784;28;20345;-51
2022/06/15 06:39:42;;;;;;;4.63;3.65;;;20.00;51.80;;;20.01;45.81;97656.63;5023829;28;20049;-47
2022/06/15 06:42:11;;;;;;;6.40;3.35;;;20.10;51.60;;;20.08;45.84;97661.97;5024783;28;20046;-51
2022/06/15 06:44:43;;;;;;;6.60;4.18;;;20.10;51.60;;;20.11;45.66;97654.25;5023341;28;20056;-47
2022/06/15 06:47:11;;;;;;;6.57;3.45;;;20.20;51.60;;;20.17;45.57;97663.34;5024736;28;20059;-50
2022/06/15 06:49:40;;;;;;;5.55;3.65;;;20.20;51.40;;;20.22;45.83;97660.78;5024186;28;20239;-49
2022/06/15 06:52:09;;;;;;;5.32;3.85;;;20.30;51.60;;;20.27;45.84;97661.78;5024591;28;20248;-51
2022/06/15 06:54:37;;;;;;;4.25;3.75;;;20.40;51.60;;;20.33;45.67;97662.75;5024601;28;20053;-48
2022/06/15 06:57:05;;;;;;;7.07;3.67;;;20.40;51.70;;;20.38;46.18;97660.22;5024437;28;20053;-49
2022/06/15 06:59:33;;;;;;;6.15;3.70;;;20.40;52.10;;;20.41;45.58;97662.50;5023885;28;20052;-53
2022/06/15 07:02:01;;;;;;;6.80;3.65;;;20.40;51.50;;;20.46;45.76;97665.34;5024737;28;20052;-52
2022/06/15 07:04:30;;;;;;;4.75;3.78;;;20.50;51.70;;;20.49;45.64;97665.94;5024195;28;20048;-50
2022/06/15 07:06:59;;;;;;;5.18;3.58;;;20.60;51.50;;;20.53;45.67;97662.56;5023693;28;20054;-52
2022/06/15 07:09:27;;;;;;;4.63;3.97;;;20.60;51.30;;;20.56;45.47;97667.53;5023937;28;20054;-49
2022/06/15 07:11:56;;;;;;;6.35;3.67;;;20.60;51.20;;;20.62;45.26;97665.81;5024211;28;20049;-52
2022/06/15 07:14:23;;;;;;;6.28;3.78;;;20.70;51.10;;;20.66;45.41;97667.03;5022961;28;20358;-51
2022/06/15 07:16:51;;;;;;;5.45;3.70;;;20.70;50.90;;;20.69;44.90;97663.88;5022583;28;20053;-50
2022/06/15 07:19:19;;;;;;;5.88;3.53;;;20.80;50.60;;;20.74;44.77;97669.41;5023464;28;20046;-51
2022/06/15 07:21:47;;;;;;;4.63;3.85;;;20.80;50.50;;;20.78;44.98;97667.09;5024084;28;20068;-53
2022/06/15 07:24:15;;;;;;;4.72;3.47;;;20.80;50.40;;;20.83;44.38;97667.25;5023641;28;20056;-53
2022/06/15 07:26:47;;;;;;;6.88;4.28;;;20.90;50.10;;;20.87;44.85;97667.63;5023448;28;20079;-51
2022/06/15 07:29:22;;;;;;;6.20;3.75;;;21.00;50.30;;;20.90;44.87;97673.41;5022364;28;20075;-50
2022/06/15 07:31:55;;;;;;;4.95;4.10;;;21.00;50.10;;;20.95;44.83;97672.72;5023957;28;20056;-53
2022/06/15 07:34:24;;;;;;;5.80;3.88;;;21.00;50.20;;;20.99;44.43;97673.94;5023693;28;20112;-53
2022/06/15 07:36:52;;;;;;;13.05;4.22;;;21.00;49.80;;;21.04;44.46;97677.59;5023484;28;20038;-48
2022/06/15 07:39:28;;;;;;;8.20;3.75;;;21.10;50.00;;;21.09;44.61;97684.22;5024167;28;20049;-47
2022/06/15 07:42:02;;;;;;;8.57;4.30;;;21.20;50.00;;;21.12;44.95;97675.66;5023704;28;20045;-50
2022/06/15 07:44:31;;;;;;;5.90;4.00;;;21.20;50.30;;;21.17;44.37;97676.63;5023424;28;20046;-48
2022/06/15 07:49:55;;;;;;;4.93;3.75;;;21.30;49.70;;;21.24;44.69;97669.22;5023254;28;20046;-51
2022/06/15 07:52:47;;;;;;;8.25;4.35;;;21.40;49.70;;;21.31;44.53;97671.84;5022706;28;20053;-50
2022/06/15 07:55:28;;;;;;;6.30;4.05;;;21.50;50.00;;;21.38;44.26;97675.31;5023364;28;20054;-53
2022/06/15 07:57:57;;;;;;;6.40;3.60;;;21.50;49.70;;;21.42;44.27;97673.78;5023050;28;20063;-50
2022/06/15 08:00:25;;;;;;;6.38;3.63;;;21.60;49.40;;;21.46;43.86;97676.03;5023166;28;20050;-50
2022/06/15 08:02:53;;;;;;;11.20;3.90;;;21.60;49.20;;;21.52;44.23;97678.66;5023394;28;20049;-50
2022/06/15 08:05:21;;;;;;;6.93;3.67;;;21.70;49.10;;;21.57;45.17;97673.38;5023320;28;20041;-50
2022/06/15 08:07:50;;;;;;;5.78;3.85;;;21.80;50.60;;;21.67;45.21;97680.13;5022883;28;20049;-50
2022/06/15 08:10:23;;;;;;;5.55;3.58;;;21.80;51.00;;;21.77;45.75;97683.91;5022099;28;20053;-51
2022/06/15 08:12:51;;;;;;;7.05;3.83;;;21.90;51.20;;;21.87;45.24;97677.09;5023279;28;20110;-49
2022/06/15 08:15:19;;;;;;;4.35;3.90;;;22.00;51.20;;;21.92;45.14;97679.94;5022919;28;20053;-50
2022/06/15 08:17:56;;;;;;;7.40;4.68;;;22.00;50.80;;;21.96;44.94;97681.13;5022638;28;20354;-51
2022/06/15 08:20:26;;;;;;;5.90;3.55;;;22.10;50.40;;;22.01;45.15;97670.41;5021415;28;20050;-49
2022/06/15 08:23:01;;;;;;;5.28;3.90;;;22.10;50.50;;;22.09;44.77;97674.66;5022929;28;20356;-49
2022/06/15 08:25:37;;;;;;;7.57;4.57;;;22.20;50.40;;;22.13;44.59;97670.41;5022690;28;20068;-52
2022/06/15 08:28:07;;;;;;;4.38;3.97;;;22.30;50.40;;;22.18;44.89;97674.06;5021348;28;20052;-51
2022/06/15 08:30:37;;;;;;;5.40;4.22;;;22.30;50.20;;;22.25;44.43;97673.97;5021916;28;20055;-50
2022/06/15 08:33:08;;;;;;;6.57;3.83;;;22.40;50.10;;;22.31;44.67;97678.44;5022788;28;20069;-51
2022/06/15 08:35:37;;;;;;;5.10;3.60;;;22.40;50.10;;;22.39;44.53;97682.69;5023007;28;20057;-52
2022/06/15 08:38:12;;;;;;;6.35;3.83;;;22.50;49.90;;;22.39;43.84;97677.28;5022225;28;20235;-50
2022/06/15 08:41:10;;;;;;;5.57;3.60;;;22.60;48.90;;;22.40;43.56;97671.63;5022552;28;20348;-55
2022/06/15 08:44:20;;;;;;;8.00;4.78;;;22.60;48.40;;;22.46;43.92;97674.47;5021265;28;20054;-52
2022/06/15 08:47:06;;;;;;;5.57;3.70;;;22.70;48.80;;;22.55;43.89;97675.75;5022596;28;20049;-51
2022/06/15 08:49:52;;;;;;;8.10;3.80;;;22.70;48.90;;;22.60;43.54;97678.56;5020860;28;20217;-50
2022/06/15 08:52:54;;;;;;;4.13;3.58;;;22.80;48.10;;;22.68;43.72;97675.50;5021503;28;20042;-48
2022/06/15 08:55:40;;;;;;;6.00;4.22;;;22.80;48.80;;;22.76;42.88;97680.56;5022283;28;20050;-50
2022/06/15 08:58:38;;;;;;;5.60;3.78;;;22.90;47.70;;;22.81;42.83;97683.34;5021090;28;20050;-52
2022/06/15 09:01:30;;;;;;;6.40;3.53;;;23.00;47.70;;;22.86;42.58;97679.94;5021390;28;20236;-50
2022/06/15 09:04:20;;;;;;;6.72;4.10;;;23.00;47.30;;;22.91;42.88;97679.22;5021947;28;20375;-47
2022/06/15 09:07:09;;;;;;;8.05;3.97;;;23.10;48.30;;;23.01;43.15;97684.84;5022063;28;20041;-52
2022/06/15 09:10:18;;;;;;;5.53;4.05;;;23.10;48.40;;;23.04;42.69;97680.88;5021794;28;20046;-51
2022/06/15 09:13:22;;;;;;;6.57;3.85;;;23.20;47.60;;;23.07;42.81;97677.66;5021356;28;20050;-53
2022/06/15 09:16:23;;;;;;;8.20;3.67;;;23.30;47.30;;;23.13;42.42;97684.88;5020976;28;20046;-51
2022/06/15 09:19:09;;;;;;;6.03;3.38;;;23.30;47.00;;;23.17;42.42;97681.41;5021626;28;20048;-48
2022/06/15 09:22:07;;;;;;;5.32;3.88;;;23.30;47.10;;;23.18;41.32;97682.25;5006118;28;20052;-49
2022/06/15 09:24:47;;;;;;;5.82;4.10;;;23.30;45.20;;;23.18;41.90;97685.78;5021959;28;20215;-52
2022/06/15 09:27:23;;;;;;;4.97;3.65;;;23.40;46.50;;;23.25;41.90;97692.97;5021219;28;20053;-52
2022/06/15 09:30:02;;;;;;;7.68;3.50;;;23.50;45.70;;;23.26;41.59;97692.72;5021836;28;20056;-52
2022/06/15 09:32:43;;;;;;;9.10;3.67;;;23.60;45.90;;;23.32;41.23;97686.34;5025132;28;20052;-51
2022/06/15 09:35:35;;;;;;;5.70;4.38;;;23.70;44.40;;;23.38;39.81;97692.69;5026077;28;20272;-49
2022/06/15 09:38:09;;;;;;;4.50;3.92;;;23.70;43.30;;;23.42;39.93;97690.28;5025788;28;20240;-50
2022/06/15 09:40:53;;;;;;;5.32;3.70;;;23.70;43.30;;;23.42;39.89;97691.13;5025852;28;20046;-52
2022/06/15 09:44:12;;;;;;;7.25;4.80;;;23.70;42.80;;;23.49;38.86;97688.25;5024903;28;20050;-50
2022/06/15 09:47:30;;;;;;;4.70;3.22;;;23.80;43.30;;;23.50;39.04;97684.50;5024439;28;20056;-52
2022/06/15 09:50:38;;;;;;;4.97;3.42;;;23.90;42.00;;;23.66;38.90;97686.41;5025441;28;20071;-50
2022/06/15 09:53:25;;;;;;;10.90;3.70;;;24.10;40.60;;;23.68;39.23;97688.88;5025703;28;20042;-50
2022/06/15 09:55:58;;;;;;;6.80;3.88;;;24.00;42.40;;;23.71;38.96;97682.94;5025461;28;20355;-54
2022/06/15 09:59:15;;;;;;;7.82;3.33;;;23.90;42.60;;;23.73;38.15;97684.38;5025137;28;20046;-47
2022/06/15 10:01:45;;;;;;;4.03;3.63;;;24.20;40.00;;;23.78;37.46;97676.31;5025457;28;20071;-51
2022/06/15 10:04:27;;;;;;;6.43;3.33;;;24.20;39.90;;;23.88;37.84;97681.09;5023840;28;20060;-53
2022/06/15 10:07:37;;;;;;;5.88;3.42;;;24.30;40.20;;;23.95;36.65;97678.22;5025542;28;20042;-52
2022/06/15 10:10:27;;;;;;;6.57;4.03;;;24.50;38.40;;;24.03;36.99;97682.44;5024540;28;20046;-49
2022/06/15 10:13:02;;;;;;;7.53;3.67;;;24.40;38.60;;;24.03;36.63;97685.16;5023887;28;20049;-53
2022/06/15 10:15:42;;;;;;;4.68;3.58;;;24.40;39.10;;;24.07;36.53;97683.59;5025123;28;20042;-48
2022/06/15 10:18:53;;;;;;;5.75;3.22;;;24.40;39.60;;;24.06;36.51;97682.78;5024830;28;20054;-50
2022/06/15 10:21:29;;;;;;;5.20;3.58;;;24.40;39.60;;;24.18;37.08;97679.97;5024492;28;20056;-52
2022/06/15 10:24:23;;;;;;;7.43;3.33;;;24.70;39.60;;;24.27;36.52;97683.91;5025071;28;20049;-50
2022/06/15 10:27:16;;;;;;;9.10;5.03;;;24.70;39.00;;;24.38;35.91;97682.97;5025810;28;20088;-53
2022/06/15 10:29:55;;;;;;;4.22;3.40;;;24.90;39.00;;;24.44;35.35;97683.06;5024781;28;20045;-51
2022/06/15 10:32:23;;;;;;;6.68;3.45;;;24.90;38.00;;;24.48;35.87;97681.50;5024025;28;20056;-50
2022/06/15 10:35:13;;;;;;;5.18;3.53;;;24.90;38.20;;;24.56;35.55;97672.91;5023597;28;20060;-52
2022/06/15 10:37:49;;;;;;;7.07;3.40;;;25.00;37.90;;;24.63;36.04;97680.94;5024659;28;20239;-52
2022/06/15 10:40:31;;;;;;;7.43;3.38;;;25.10;38.40;;;24.56;34.04;97679.22;5024741;28;20064;-54
2022/06/15 10:43:04;;;;;;;7.35;3.42;;;25.20;35.80;;;24.73;35.20;97676.44;5023599;28;20052;-51
2022/06/15 10:45:37;;;;;;;3.60;3.17;;;25.30;37.10;;;24.80;35.28;97678.97;5024651;28;20044;-50
2022/06/15 10:48:20;;;;;;;4.00;3.03;;;25.30;37.40;;;24.83;35.05;97678.47;5023500;28;20386;-50
2022/06/15 10:51:04;;;;;;;3.85;2.90;;;25.30;36.70;;;24.87;35.08;97670.59;5023469;28;20259;-49
2022/06/15 10:54:16;;;;;;;7.15;3.10;;;25.20;37.80;;;24.93;33.76;97669.59;5024408;28;20356;-46
2022/06/15 11:02:44;;;;;;;6.05;3.40;;;25.70;37.10;;;25.24;35.41;97664.53;5024499;28;20048;-50
2022/06/15 11:05:23;;;;;;;7.35;3.45;;;25.70;37.90;;;25.28;34.76;97661.06;5024894;28;20052;-47
2022/06/15 11:08:04;;;;;;;5.95;3.35;;;25.80;36.80;;;25.36;34.56;97654.34;5023077;28;20046;-51
2022/06/15 11:10:40;;;;;;;3.70;2.97;;;25.80;36.40;;;25.41;34.33;97656.28;5024280;28;20045;-52
2022/06/15 11:13:20;;;;;;;3.85;3.45;;;25.80;36.00;;;25.48;34.63;97652.28;5024204;28;20053;-50
2022/06/15 11:19:03;;;;;;;5.30;3.53;;;26.20;37.60;;;25.77;35.30;97648.47;5024002;28;20049;-52